createdAt,value
2018-09-28T00:00:05.911Z,25.50
2018-09-28T00:01:05.900Z,21.20
2018-09-28T00:02:05.881Z,25.40
2018-09-28T00:03:05.867Z,22.90
2018-09-28T00:04:05.851Z,23.70
2018-09-28T00:05:05.843Z,22.90
2018-09-28T00:06:05.827Z,23.90
2018-09-28T00:07:05.810Z,24.30
2018-09-28T00:08:05.796Z,25.40
2018-09-28T00:09:05.781Z,25.80
2018-09-28T00:10:05.764Z,22.70
2018-09-28T00:11:05.751Z,21.80
2018-09-28T00:12:05.739Z,23.30
2018-09-28T00:13:05.721Z,23.40
2018-09-28T00:14:05.704Z,22.10
2018-09-28T00:15:05.689Z,25.10
2018-09-28T00:16:05.675Z,23.70
2018-09-28T00:17:05.660Z,22.60
2018-09-28T00:18:05.644Z,23.80
2018-09-28T00:19:05.633Z,26.20
2018-09-28T00:20:05.620Z,24.80
2018-09-28T00:21:05.600Z,22.00
2018-09-28T00:22:05.586Z,25.80
2018-09-28T00:23:05.574Z,22.80
2018-09-28T00:24:05.568Z,23.00
2018-09-28T00:25:05.542Z,23.30
2018-09-28T00:26:05.576Z,24.30
2018-09-28T00:27:05.513Z,23.80
2018-09-28T00:28:05.501Z,24.70
2018-09-28T00:29:05.482Z,22.60
2018-09-28T00:30:05.467Z,23.80
2018-09-28T00:31:05.454Z,24.00
2018-09-28T00:32:05.437Z,21.50
2018-09-28T00:33:05.423Z,24.20
2018-09-28T00:34:05.409Z,25.10
2018-09-28T00:35:05.392Z,24.10
2018-09-28T00:36:05.378Z,23.30
2018-09-28T00:37:05.361Z,24.20
2018-09-28T00:38:05.349Z,22.60
2018-09-28T00:39:05.333Z,23.50
2018-09-28T00:40:05.326Z,21.90
2018-09-28T00:41:05.310Z,24.30
2018-09-28T00:42:05.504Z,24.20
2018-09-28T00:43:05.273Z,21.50
2018-09-28T00:44:05.254Z,24.90
2018-09-28T00:45:05.241Z,22.50
2018-09-28T00:46:05.228Z,21.30
2018-09-28T00:47:05.215Z,21.60
2018-09-28T00:48:05.198Z,25.30
2018-09-28T00:49:05.180Z,21.40
2018-09-28T00:50:05.176Z,22.90
2018-09-28T00:51:05.149Z,23.00
2018-09-28T00:52:05.134Z,25.40
2018-09-28T00:53:05.117Z,22.20
2018-09-28T00:54:05.109Z,21.90
2018-09-28T00:55:05.088Z,24.70
2018-09-28T00:56:05.074Z,23.90
2018-09-28T00:57:05.057Z,25.60
2018-09-28T00:58:05.043Z,22.60
2018-09-28T00:59:05.060Z,24.10
2018-09-28T01:00:05.010Z,21.60
2018-09-28T01:01:04.997Z,21.10
2018-09-28T01:02:04.982Z,23.40
2018-09-28T01:03:04.964Z,23.90
2018-09-28T01:04:04.953Z,25.50
2018-09-28T01:05:04.934Z,22.30
2018-09-28T01:06:04.918Z,26.20
2018-09-28T01:07:04.902Z,22.80
2018-09-28T01:08:04.888Z,23.60
2018-09-28T01:09:04.874Z,22.50
2018-09-28T01:10:04.858Z,23.30
2018-09-28T01:11:04.839Z,21.80
2018-09-28T01:12:04.827Z,22.50
2018-09-28T01:13:05.128Z,21.10
2018-09-28T01:14:05.113Z,24.40
2018-09-28T01:15:04.781Z,23.20
2018-09-28T01:16:04.764Z,22.10
2018-09-28T01:17:04.750Z,22.20
2018-09-28T01:18:04.740Z,23.90
2018-09-28T01:19:04.721Z,24.20
2018-09-28T01:20:04.707Z,24.50
2018-09-28T01:21:04.688Z,23.30
2018-09-28T01:22:04.680Z,24.20
2018-09-28T01:23:04.656Z,23.60
2018-09-28T01:24:04.646Z,24.10
2018-09-28T01:25:04.624Z,24.80
2018-09-28T01:26:04.612Z,24.20
2018-09-28T01:27:04.602Z,23.50
2018-09-28T01:28:04.579Z,23.10
2018-09-28T01:29:04.565Z,24.90
2018-09-28T01:30:04.548Z,23.30
2018-09-28T01:31:04.864Z,24.70
2018-09-28T01:32:04.518Z,23.70
2018-09-28T01:33:04.504Z,25.40
2018-09-28T01:34:04.486Z,24.40
2018-09-28T01:35:04.468Z,24.60
2018-09-28T01:36:04.459Z,25.80
2018-09-28T01:37:04.440Z,24.40
2018-09-28T01:38:04.430Z,24.00
2018-09-28T01:39:04.410Z,28.40
2018-09-28T01:40:04.392Z,27.80
2018-09-28T01:41:04.380Z,25.20
2018-09-28T01:42:04.366Z,24.20
2018-09-28T01:43:04.355Z,26.20
2018-09-28T01:44:04.332Z,27.50
2018-09-28T01:45:04.315Z,25.90
2018-09-28T01:46:04.302Z,30.50
2018-09-28T01:47:04.285Z,27.00
2018-09-28T01:48:04.274Z,24.80
2018-09-28T01:49:04.252Z,23.20
2018-09-28T01:50:04.238Z,26.90
2018-09-28T01:51:04.225Z,24.90
2018-09-28T01:52:04.205Z,23.90
2018-09-28T01:53:04.192Z,26.30
2018-09-28T01:54:04.179Z,26.90
2018-09-28T01:55:04.160Z,26.70
2018-09-28T01:56:04.147Z,27.50
2018-09-28T01:57:04.129Z,27.90
2018-09-28T01:58:04.116Z,24.50
2018-09-28T01:59:04.100Z,24.30
2018-09-28T02:00:04.081Z,27.30
2018-09-28T02:01:04.070Z,23.80
2018-09-28T02:02:04.055Z,25.80
2018-09-28T02:03:04.046Z,27.70
2018-09-28T02:04:04.020Z,26.30
2018-09-28T02:05:04.005Z,24.40
2018-09-28T02:06:03.989Z,26.70
2018-09-28T02:07:03.973Z,29.10
2018-09-28T02:08:03.964Z,25.60
2018-09-28T02:09:03.947Z,24.80
2018-09-28T02:10:03.940Z,28.20
2018-09-28T02:11:03.913Z,28.90
2018-09-28T02:12:03.899Z,28.80
2018-09-28T02:13:03.884Z,25.60
2018-09-28T02:14:03.877Z,26.10
2018-09-28T02:15:03.853Z,27.30
2018-09-28T02:16:03.836Z,29.80
2018-09-28T02:17:03.821Z,25.00
2018-09-28T02:18:03.807Z,28.10
2018-09-28T02:19:03.791Z,27.70
2018-09-28T02:20:03.771Z,27.00
2018-09-28T02:21:03.760Z,29.40
2018-09-28T02:22:03.742Z,28.80
2018-09-28T02:23:03.728Z,30.30
2018-09-28T02:24:03.710Z,28.10
2018-09-28T02:25:03.695Z,27.70
2018-09-28T02:26:03.681Z,32.90
2018-09-28T02:27:03.663Z,26.80
2018-09-28T02:28:03.650Z,27.90
2018-09-28T02:29:03.647Z,29.50
2018-09-28T02:30:03.620Z,31.00
2018-09-28T02:31:03.605Z,27.20
2018-09-28T02:32:03.589Z,32.30
2018-09-28T02:33:03.573Z,28.00
2018-09-28T02:34:03.558Z,31.20
2018-09-28T02:35:03.542Z,26.00
2018-09-28T02:36:03.526Z,25.30
2018-09-28T02:37:03.516Z,26.60
2018-09-28T02:38:03.508Z,29.60
2018-09-28T02:39:03.481Z,27.80
2018-09-28T02:40:03.467Z,29.10
2018-09-28T02:41:03.451Z,26.80
2018-09-28T02:42:03.437Z,28.30
2018-09-28T02:43:03.420Z,32.10
2018-09-28T02:44:03.406Z,27.20
2018-09-28T02:45:03.392Z,28.10
2018-09-28T02:46:03.385Z,30.20
2018-09-28T02:47:03.362Z,32.40
2018-09-28T02:48:03.344Z,31.00
2018-09-28T02:49:03.329Z,30.10
2018-09-28T02:50:03.318Z,29.70
2018-09-28T02:51:03.297Z,29.30
2018-09-28T02:52:03.290Z,28.50
2018-09-28T02:53:03.268Z,29.30
2018-09-28T02:54:03.258Z,28.10
2018-09-28T02:55:03.236Z,32.90
2018-09-28T02:56:03.221Z,29.20
2018-09-28T02:57:03.282Z,33.10
2018-09-28T02:58:03.190Z,29.90
2018-09-28T02:59:03.177Z,29.20
2018-09-28T03:00:03.160Z,30.40
2018-09-28T03:01:03.146Z,31.60
2018-09-28T03:02:03.133Z,31.30
2018-09-28T03:03:03.115Z,30.70
2018-09-28T03:04:03.105Z,29.80
2018-09-28T03:05:03.084Z,31.50
2018-09-28T03:06:03.080Z,32.60
2018-09-28T03:07:03.053Z,32.40
2018-09-28T03:08:03.040Z,31.90
2018-09-28T03:09:03.024Z,34.60
2018-09-28T03:10:03.015Z,32.10
2018-09-28T03:11:02.993Z,32.70
2018-09-28T03:12:02.978Z,33.00
2018-09-28T03:13:02.964Z,32.50
2018-09-28T03:14:02.962Z,32.30
2018-09-28T03:15:02.932Z,31.90
2018-09-28T03:16:02.918Z,33.10
2018-09-28T03:17:02.902Z,33.20
2018-09-28T03:18:02.888Z,34.10
2018-09-28T03:19:02.872Z,33.40
2018-09-28T03:20:02.858Z,33.20
2018-09-28T03:21:02.843Z,33.60
2018-09-28T03:22:02.827Z,34.50
2018-09-28T03:23:02.812Z,33.80
2018-09-28T03:24:02.802Z,33.50
2018-09-28T03:25:02.783Z,33.70
2018-09-28T03:26:02.985Z,34.00
2018-09-28T03:27:02.755Z,33.60
2018-09-28T03:28:02.734Z,35.70
2018-09-28T03:29:02.721Z,34.30
2018-09-28T03:30:02.713Z,33.60
2018-09-28T03:31:02.689Z,33.80
2018-09-28T03:32:02.679Z,34.00
2018-09-28T03:33:02.662Z,34.10
2018-09-28T03:34:02.647Z,35.10
2018-09-28T03:35:02.631Z,33.90
2018-09-28T03:36:02.616Z,36.10
2018-09-28T03:37:02.602Z,34.70
2018-09-28T03:38:02.587Z,35.20
2018-09-28T03:39:02.569Z,33.90
2018-09-28T03:40:02.556Z,35.80
2018-09-28T03:41:02.541Z,35.00
2018-09-28T03:42:02.527Z,37.00
2018-09-28T03:43:02.509Z,36.00
2018-09-28T03:44:02.499Z,34.20
2018-09-28T03:45:02.483Z,37.50
2018-09-28T03:46:02.472Z,34.50
2018-09-28T03:47:02.450Z,35.10
2018-09-28T03:48:02.440Z,35.30
2018-09-28T03:49:02.422Z,35.60
2018-09-28T03:50:02.408Z,33.60
2018-09-28T03:51:02.399Z,35.40
2018-09-28T03:52:02.375Z,33.70
2018-09-28T03:53:02.366Z,35.00
2018-09-28T03:54:02.352Z,35.00
2018-09-28T03:55:02.335Z,34.90
2018-09-28T03:56:02.318Z,34.70
2018-09-28T03:57:02.303Z,35.40
2018-09-28T03:58:02.290Z,35.70
2018-09-28T03:59:02.272Z,35.60
2018-09-28T04:00:02.256Z,34.80
2018-09-28T04:01:02.243Z,37.20
2018-09-28T04:02:02.231Z,35.90
2018-09-28T04:03:02.335Z,34.20
2018-09-28T04:04:02.197Z,35.00
2018-09-28T04:05:02.183Z,34.30
2018-09-28T04:06:02.169Z,35.90
2018-09-28T04:07:02.156Z,36.30
2018-09-28T04:08:02.154Z,35.10
2018-09-28T04:09:02.123Z,35.40
2018-09-28T04:10:02.112Z,35.80
2018-09-28T04:11:02.095Z,36.20
2018-09-28T04:12:02.079Z,36.20
2018-09-28T04:13:02.063Z,36.70
2018-09-28T04:14:02.051Z,36.80
2018-09-28T04:15:02.107Z,37.90
2018-09-28T04:16:02.019Z,41.70
2018-09-28T04:17:02.002Z,36.90
2018-09-28T04:18:01.994Z,36.70
2018-09-28T04:19:01.973Z,82.70
2018-09-28T04:20:01.959Z,52.60
2018-09-28T04:21:01.945Z,39.10
2018-09-28T04:22:01.963Z,39.10
2018-09-28T04:23:01.914Z,50.50
2018-09-28T04:24:01.900Z,41.60
2018-09-28T04:25:01.890Z,45.90
2018-09-28T04:26:01.872Z,38.30
2018-09-28T04:27:01.917Z,38.40
2018-09-28T04:28:01.844Z,38.30
2018-09-28T04:29:01.828Z,38.10
2018-09-28T04:30:01.816Z,39.10
2018-09-28T04:31:01.795Z,41.30
2018-09-28T04:32:01.789Z,39.20
2018-09-28T04:33:01.766Z,40.10
2018-09-28T04:34:01.759Z,41.10
2018-09-28T04:35:01.744Z,41.70
2018-09-28T04:36:01.723Z,42.10
2018-09-28T04:37:01.710Z,39.90
2018-09-28T04:38:01.698Z,41.80
2018-09-28T04:39:01.680Z,41.60
2018-09-28T04:40:01.669Z,40.80
2018-09-28T04:41:01.653Z,41.10
2018-09-28T04:42:01.638Z,42.30
2018-09-28T04:43:01.633Z,40.40
2018-09-28T04:44:01.604Z,41.80
2018-09-28T04:45:01.657Z,41.50
2018-09-28T04:46:01.574Z,42.40
2018-09-28T04:47:01.562Z,42.40
2018-09-28T04:48:01.549Z,44.90
2018-09-28T04:49:01.540Z,43.00
2018-09-28T04:50:01.517Z,42.90
2018-09-28T04:51:01.504Z,43.60
2018-09-28T04:52:01.494Z,44.10
2018-09-28T04:53:01.472Z,44.40
2018-09-28T04:54:01.456Z,44.30
2018-09-28T04:55:01.441Z,45.40
2018-09-28T04:56:01.430Z,43.70
2018-09-28T04:57:01.411Z,43.90
2018-09-28T04:58:01.398Z,45.00
2018-09-28T04:59:01.383Z,45.70
2018-09-28T05:00:01.364Z,44.30
2018-09-28T05:01:01.354Z,45.00
2018-09-28T05:02:01.338Z,46.50
2018-09-28T05:03:01.320Z,46.40
2018-09-28T05:04:01.304Z,45.90
2018-09-28T05:05:01.296Z,44.30
2018-09-28T05:06:01.284Z,45.50
2018-09-28T05:07:01.263Z,46.90
2018-09-28T05:08:01.244Z,46.50
2018-09-28T05:09:01.231Z,46.40
2018-09-28T05:10:01.220Z,45.80
2018-09-28T05:11:01.202Z,43.50
2018-09-28T05:12:01.188Z,45.40
2018-09-28T05:13:01.239Z,46.60
2018-09-28T05:14:01.158Z,45.90
2018-09-28T05:15:01.148Z,45.80
2018-09-28T05:16:01.129Z,44.90
2018-09-28T05:17:01.117Z,46.10
2018-09-28T05:18:01.100Z,47.50
2018-09-28T05:19:01.091Z,47.40
2018-09-28T05:20:01.069Z,47.70
2018-09-28T05:21:01.053Z,48.80
2018-09-28T05:22:01.043Z,45.90
2018-09-28T05:23:01.024Z,45.80
2018-09-28T05:24:01.008Z,45.90
2018-09-28T05:25:00.994Z,45.50
2018-09-28T05:26:00.979Z,45.00
2018-09-28T05:27:00.966Z,46.30
2018-09-28T05:28:00.947Z,46.50
2018-09-28T05:29:00.933Z,46.30
2018-09-28T05:30:00.919Z,44.50
2018-09-28T05:31:00.961Z,44.90
2018-09-28T05:32:00.951Z,45.20
2018-09-28T05:33:00.935Z,45.20
2018-09-28T05:34:00.858Z,44.40
2018-09-28T05:35:00.843Z,46.20
2018-09-28T05:36:00.829Z,46.40
2018-09-28T05:37:00.815Z,44.00
2018-09-28T05:38:00.799Z,43.80
2018-09-28T05:39:00.790Z,43.50
2018-09-28T05:40:00.769Z,43.30
2018-09-28T05:41:00.754Z,44.50
2018-09-28T05:42:00.739Z,45.30
2018-09-28T05:43:00.728Z,45.20
2018-09-28T05:44:00.715Z,43.80
2018-09-28T05:45:00.699Z,44.40
2018-09-28T05:46:00.680Z,45.60
2018-09-28T05:47:00.665Z,44.20
2018-09-28T05:48:00.651Z,42.30
2018-09-28T05:49:00.636Z,43.40
2018-09-28T05:50:00.625Z,43.00
2018-09-28T05:51:00.608Z,42.70
2018-09-28T05:52:00.592Z,41.20
2018-09-28T05:53:00.577Z,41.60
2018-09-28T05:54:00.561Z,41.70
2018-09-28T05:55:00.546Z,42.50
2018-09-28T05:56:00.537Z,40.90
2018-09-28T05:57:00.516Z,43.30
2018-09-28T05:58:00.519Z,39.40
2018-09-28T05:59:00.484Z,38.80
2018-09-28T06:00:00.471Z,38.80
2018-09-28T06:01:00.461Z,39.00
2018-09-28T06:02:00.440Z,37.30
2018-09-28T06:03:00.430Z,38.80
2018-09-28T06:04:00.410Z,35.10
2018-09-28T06:05:00.396Z,34.10
2018-09-28T06:06:00.383Z,34.80
2018-09-28T06:07:00.368Z,34.20
2018-09-28T06:08:00.349Z,34.90
2018-09-28T06:09:00.335Z,33.00
2018-09-28T06:10:00.320Z,32.30
2018-09-28T06:11:00.305Z,31.00
2018-09-28T06:12:00.289Z,31.40
2018-09-28T06:13:00.274Z,31.40
2018-09-28T06:14:00.263Z,30.30
2018-09-28T06:15:00.244Z,30.40
2018-09-28T06:16:00.228Z,31.50
2018-09-28T06:17:00.215Z,29.30
2018-09-28T06:18:00.284Z,28.60
2018-09-28T06:19:00.223Z,28.40
2018-09-28T06:20:00.168Z,29.40
2018-09-28T06:21:00.153Z,27.00
2018-09-28T06:22:00.144Z,27.80
2018-09-28T06:23:00.122Z,26.00
2018-09-28T06:24:00.148Z,27.70
2018-09-28T06:25:00.092Z,23.20
2018-09-28T06:26:00.148Z,23.80
2018-09-28T06:27:00.062Z,21.20
2018-09-28T06:28:00.047Z,24.70
2018-09-28T06:29:00.036Z,22.70
2018-09-28T06:30:00.070Z,23.50
2018-09-28T06:31:00.011Z,19.60
2018-09-28T06:31:59.987Z,18.50
2018-09-28T06:32:59.971Z,19.40
2018-09-28T06:33:59.959Z,22.30
2018-09-28T06:34:59.944Z,23.90
2018-09-28T06:35:59.985Z,17.60
2018-09-28T06:36:59.913Z,19.20
2018-09-28T06:37:59.905Z,17.70
2018-09-28T06:38:59.891Z,21.20
2018-09-28T06:39:59.869Z,18.50
2018-09-28T06:40:59.848Z,17.60
2018-09-28T06:41:59.899Z,17.80
2018-09-28T06:42:59.823Z,19.20
2018-09-28T06:43:59.803Z,17.30
2018-09-28T06:44:59.787Z,13.00
2018-09-28T06:45:59.777Z,24.30
2018-09-28T06:46:59.759Z,15.90
2018-09-28T06:47:59.913Z,18.60
2018-09-28T06:48:59.731Z,15.80
2018-09-28T06:49:59.712Z,16.00
2018-09-28T06:50:59.699Z,18.80
2018-09-28T06:51:59.680Z,17.80
2018-09-28T06:52:59.666Z,14.00
2018-09-28T06:53:59.699Z,13.70
2018-09-28T06:54:59.641Z,16.30
2018-09-28T06:55:59.620Z,16.30
2018-09-28T06:56:59.605Z,14.60
2018-09-28T06:57:59.644Z,10.90
2018-09-28T06:58:59.578Z,12.10
2018-09-28T06:59:59.599Z,12.90
2018-09-28T07:00:59.544Z,16.30
2018-09-28T07:01:59.529Z,13.50
2018-09-28T07:02:59.515Z,13.80
2018-09-28T07:03:59.545Z,11.70
2018-09-28T07:04:59.488Z,12.80
2018-09-28T07:05:59.572Z,11.90
2018-09-28T07:06:59.456Z,18.20
2018-09-28T07:07:59.451Z,14.30
2018-09-28T07:08:59.422Z,12.20
2018-09-28T07:09:59.409Z,11.80
2018-09-28T07:10:59.397Z,16.30
2018-09-28T07:11:59.486Z,14.20
2018-09-28T07:12:59.364Z,13.00
2018-09-28T07:13:59.350Z,12.00
2018-09-28T07:14:59.336Z,12.40
2018-09-28T07:15:59.320Z,15.80
2018-09-28T07:16:59.310Z,13.40
2018-09-28T07:17:59.399Z,11.80
2018-09-28T07:18:59.277Z,12.30
2018-09-28T07:19:59.262Z,14.40
2018-09-28T07:20:59.247Z,14.10
2018-09-28T07:21:59.231Z,14.40
2018-09-28T07:22:59.232Z,18.40
2018-09-28T07:23:59.319Z,15.10
2018-09-28T07:24:59.197Z,13.10
2018-09-28T07:25:59.171Z,14.80
2018-09-28T07:26:59.156Z,9.80
2018-09-28T07:27:59.143Z,15.70
2018-09-28T07:28:59.141Z,11.30
2018-09-28T07:29:59.193Z,14.00
2018-09-28T07:30:59.098Z,12.40
2018-09-28T07:31:59.085Z,13.50
2018-09-28T07:32:59.067Z,13.80
2018-09-28T07:33:59.050Z,12.50
2018-09-28T07:34:59.043Z,13.70
2018-09-28T07:35:59.195Z,12.00
2018-09-28T07:36:59.138Z,13.60
2018-09-28T07:37:59.003Z,14.40
2018-09-28T07:38:58.979Z,12.50
2018-09-28T07:39:58.963Z,15.20
2018-09-28T07:40:58.949Z,14.20
2018-09-28T07:41:59.027Z,11.40
2018-09-28T07:42:58.916Z,11.70
2018-09-28T07:43:58.905Z,14.20
2018-09-28T07:44:58.929Z,15.30
2018-09-28T07:45:58.877Z,17.20
2018-09-28T07:46:58.860Z,10.70
2018-09-28T07:47:59.004Z,10.70
2018-09-28T07:48:58.829Z,12.30
2018-09-28T07:49:58.825Z,13.40
2018-09-28T07:50:58.799Z,11.50
2018-09-28T07:51:58.787Z,13.70
2018-09-28T07:52:58.771Z,14.60
2018-09-28T07:53:58.758Z,12.80
2018-09-28T07:54:58.742Z,12.80
2018-09-28T07:55:58.727Z,12.80
2018-09-28T07:56:58.717Z,17.80
2018-09-28T07:57:58.705Z,17.10
2018-09-28T07:58:58.702Z,13.50
2018-09-28T07:59:58.671Z,17.10
2018-09-28T08:00:58.657Z,11.90
2018-09-28T08:01:58.641Z,14.70
2018-09-28T08:02:58.634Z,10.00
2018-09-28T08:03:58.671Z,12.80
2018-09-28T08:04:58.604Z,15.50
2018-09-28T08:05:58.591Z,16.70
2018-09-28T08:06:58.573Z,12.80
2018-09-28T08:07:58.555Z,16.00
2018-09-28T08:08:58.540Z,20.10
2018-09-28T08:09:58.525Z,11.20
2018-09-28T08:10:58.523Z,16.80
2018-09-28T08:11:58.496Z,13.70
2018-09-28T08:12:58.479Z,14.60
2018-09-28T08:13:58.466Z,11.30
2018-09-28T08:14:58.456Z,17.80
2018-09-28T08:15:58.446Z,15.20
2018-09-28T08:16:58.425Z,12.20
2018-09-28T08:17:58.630Z,13.50
2018-09-28T08:18:58.402Z,13.50
2018-09-28T08:19:58.380Z,14.60
2018-09-28T08:20:58.365Z,15.80
2018-09-28T08:21:58.351Z,16.10
2018-09-28T08:22:58.336Z,12.10
2018-09-28T08:23:58.324Z,15.00
2018-09-28T08:24:58.306Z,15.30
2018-09-28T08:25:58.292Z,17.60
2018-09-28T08:26:58.277Z,14.80
2018-09-28T08:27:58.266Z,16.50
2018-09-28T08:28:58.250Z,13.40
2018-09-28T08:29:58.238Z,10.70
2018-09-28T08:30:58.217Z,15.40
2018-09-28T08:31:58.209Z,12.90
2018-09-28T08:32:58.189Z,13.90
2018-09-28T08:33:58.177Z,14.50
2018-09-28T08:34:58.163Z,11.60
2018-09-28T08:35:58.146Z,12.00
2018-09-28T08:36:58.133Z,13.00
2018-09-28T08:37:58.125Z,12.80
2018-09-28T08:38:58.100Z,12.00
2018-09-28T08:39:58.089Z,14.60
2018-09-28T08:40:58.076Z,12.00
2018-09-28T08:41:58.134Z,11.10
2018-09-28T08:42:58.042Z,13.40
2018-09-28T08:43:58.034Z,16.80
2018-09-28T08:44:58.020Z,12.50
2018-09-28T08:45:58.002Z,14.00
2018-09-28T08:46:57.993Z,14.90
2018-09-28T08:47:57.971Z,13.70
2018-09-28T08:48:58.312Z,13.70
2018-09-28T08:49:57.945Z,9.70
2018-09-28T08:50:57.945Z,13.50
2018-09-28T08:51:57.916Z,11.20
2018-09-28T08:52:57.901Z,11.50
2018-09-28T08:53:57.895Z,14.30
2018-09-28T08:54:57.872Z,14.40
2018-09-28T08:55:57.865Z,14.10
2018-09-28T08:56:57.846Z,10.60
2018-09-28T08:57:57.830Z,15.70
2018-09-28T08:58:57.815Z,16.00
2018-09-28T08:59:57.804Z,15.10
2018-09-28T09:00:57.788Z,13.00
2018-09-28T09:01:57.775Z,13.90
2018-09-28T09:02:57.763Z,14.00
2018-09-28T09:03:57.747Z,12.00
2018-09-28T09:04:57.733Z,14.20
2018-09-28T09:05:57.719Z,13.30
2018-09-28T09:06:57.705Z,13.50
2018-09-28T09:07:57.691Z,15.90
2018-09-28T09:08:57.677Z,16.30
2018-09-28T09:09:57.664Z,14.70
2018-09-28T09:10:57.651Z,14.90
2018-09-28T09:11:57.643Z,13.50
2018-09-28T09:12:57.636Z,10.30
2018-09-28T09:13:57.618Z,14.00
2018-09-28T09:14:57.597Z,13.10
2018-09-28T09:15:57.594Z,14.60
2018-09-28T09:16:57.574Z,14.40
2018-09-28T09:17:57.592Z,14.20
2018-09-28T09:18:57.551Z,11.60
2018-09-28T09:19:57.582Z,15.70
2018-09-28T09:20:57.531Z,14.90
2018-09-28T09:21:57.510Z,14.90
2018-09-28T09:22:57.495Z,12.40
2018-09-28T09:23:57.543Z,16.60
2018-09-28T09:24:57.470Z,14.70
2018-09-28T09:25:57.459Z,12.70
2018-09-28T09:26:57.445Z,15.30
2018-09-28T09:27:57.435Z,11.10
2018-09-28T09:28:57.421Z,18.20
2018-09-28T09:29:57.408Z,14.90
2018-09-28T09:30:57.391Z,14.90
2018-09-28T09:31:57.386Z,14.80
2018-09-28T09:32:57.363Z,15.70
2018-09-28T09:33:57.352Z,13.30
2018-09-28T09:34:57.341Z,14.10
2018-09-28T09:35:57.328Z,13.50
2018-09-28T09:36:57.312Z,15.30
2018-09-28T09:37:57.302Z,14.80
2018-09-28T09:38:57.290Z,15.90
2018-09-28T09:39:57.272Z,14.70
2018-09-28T09:40:57.262Z,14.80
2018-09-28T09:41:57.244Z,14.40
2018-09-28T09:42:57.244Z,15.20
2018-09-28T09:43:57.219Z,15.20
2018-09-28T09:44:57.213Z,17.40
2018-09-28T09:45:57.206Z,15.80
2018-09-28T09:46:57.177Z,14.30
2018-09-28T09:47:57.164Z,14.70
2018-09-28T09:48:57.152Z,14.80
2018-09-28T09:49:57.138Z,11.80
2018-09-28T09:50:57.133Z,12.20
2018-09-28T09:51:57.115Z,15.50
2018-09-28T09:52:57.103Z,15.30
2018-09-28T09:53:57.082Z,13.40
2018-09-28T09:54:57.074Z,14.70
2018-09-28T09:55:57.054Z,17.20
2018-09-28T09:56:57.041Z,15.30
2018-09-28T09:57:57.029Z,15.50
2018-09-28T09:58:57.020Z,14.30
2018-09-28T09:59:57.000Z,14.60
2018-09-28T10:00:56.987Z,16.30
2018-09-28T10:01:56.977Z,17.70
2018-09-28T10:02:56.962Z,13.50
2018-09-28T10:03:56.948Z,16.40
2018-09-28T10:04:56.937Z,17.20
2018-09-28T10:05:56.921Z,12.70
2018-09-28T10:06:56.904Z,13.40
2018-09-28T10:07:56.897Z,17.10
2018-09-28T10:08:56.882Z,12.20
2018-09-28T10:09:57.188Z,12.00
2018-09-28T10:10:56.849Z,12.50
2018-09-28T10:11:56.841Z,13.60
2018-09-28T10:12:56.823Z,12.40
2018-09-28T10:13:56.820Z,14.00
2018-09-28T10:14:56.803Z,13.90
2018-09-28T10:15:56.785Z,18.70
2018-09-28T10:16:56.783Z,11.00
2018-09-28T10:17:56.758Z,13.70
2018-09-28T10:18:56.743Z,14.40
2018-09-28T10:19:56.731Z,12.70
2018-09-28T10:20:56.718Z,15.00
2018-09-28T10:21:56.703Z,11.00
2018-09-28T10:22:56.689Z,11.40
2018-09-28T10:23:56.688Z,11.80
2018-09-28T10:24:56.665Z,12.50
2018-09-28T10:25:56.652Z,13.30
2018-09-28T10:26:56.692Z,15.30
2018-09-28T10:27:56.675Z,12.90
2018-09-28T10:28:56.611Z,13.50
2018-09-28T10:29:56.608Z,11.70
2018-09-28T10:30:56.585Z,11.30
2018-09-28T10:31:56.565Z,13.90
2018-09-28T10:32:56.554Z,12.50
2018-09-28T10:33:56.542Z,10.00
2018-09-28T10:34:56.536Z,10.60
2018-09-28T10:35:56.520Z,11.60
2018-09-28T10:36:56.509Z,11.90
2018-09-28T10:37:56.490Z,11.00
2018-09-28T10:38:56.797Z,9.90
2018-09-28T10:39:56.465Z,14.40
2018-09-28T10:40:56.651Z,10.30
2018-09-28T10:41:56.436Z,9.30
2018-09-28T10:42:56.427Z,13.40
2018-09-28T10:43:56.412Z,10.90
2018-09-28T10:44:56.398Z,10.90
2018-09-28T10:45:56.385Z,11.40
2018-09-28T10:46:56.374Z,9.00
2018-09-28T10:47:56.362Z,11.60
2018-09-28T10:48:56.348Z,12.20
2018-09-28T10:49:56.337Z,9.10
2018-09-28T10:50:56.374Z,12.60
2018-09-28T10:51:56.453Z,9.20
2018-09-28T10:52:56.464Z,14.00
2018-09-28T10:53:56.285Z,10.70
2018-09-28T10:54:56.316Z,10.00
2018-09-28T10:55:56.260Z,10.30
2018-09-28T10:56:56.250Z,9.90
2018-09-28T10:57:56.256Z,9.40
2018-09-28T10:58:56.309Z,10.00
2018-09-28T10:59:56.217Z,12.20
2018-09-28T11:00:56.204Z,10.40
2018-09-28T11:01:56.205Z,8.00
2018-09-28T11:02:56.185Z,11.20
2018-09-28T11:03:56.172Z,10.30
2018-09-28T11:04:56.167Z,11.10
2018-09-28T11:05:56.152Z,9.20
2018-09-28T11:06:56.142Z,9.60
2018-09-28T11:07:56.132Z,9.90
2018-09-28T11:08:56.184Z,8.90
2018-09-28T11:09:56.109Z,9.40
2018-09-28T11:10:56.099Z,9.30
2018-09-28T11:11:56.087Z,7.30
2018-09-28T11:12:56.083Z,8.50
2018-09-28T11:13:56.069Z,9.10
2018-09-28T11:14:56.061Z,8.10
2018-09-28T11:15:56.043Z,10.40
2018-09-28T11:16:56.043Z,10.00
2018-09-28T11:17:56.033Z,6.90
2018-09-28T11:18:56.082Z,11.20
2018-09-28T11:19:56.003Z,7.40
2018-09-28T11:20:55.992Z,9.90
2018-09-28T11:21:56.208Z,11.30
2018-09-28T11:22:55.975Z,7.80
2018-09-28T11:23:55.967Z,10.60
2018-09-28T11:24:55.954Z,9.10
2018-09-28T11:25:55.942Z,8.90
2018-09-28T11:26:55.929Z,7.40
2018-09-28T11:27:55.919Z,10.20
2018-09-28T11:28:55.907Z,12.60
2018-09-28T11:29:55.897Z,9.60
2018-09-28T11:30:55.898Z,9.60
2018-09-28T11:31:56.201Z,11.20
2018-09-28T11:32:55.862Z,14.30
2018-09-28T11:33:55.853Z,14.00
2018-09-28T11:35:55.839Z,15.10
2018-09-28T11:36:55.820Z,17.80
2018-09-28T11:37:55.810Z,9.10
2018-09-28T11:38:55.798Z,11.20
2018-09-28T11:39:55.791Z,13.90
2018-09-28T11:40:55.778Z,9.30
2018-09-28T11:41:55.765Z,11.90
2018-09-28T11:42:55.755Z,8.00
2018-09-28T11:43:55.744Z,8.50
2018-09-28T11:44:55.735Z,11.70
2018-09-28T11:45:55.738Z,12.50
2018-09-28T11:46:55.714Z,13.10
2018-09-28T11:47:55.709Z,10.20
2018-09-28T11:48:55.689Z,10.90
2018-09-28T11:49:55.676Z,12.50
2018-09-28T11:50:55.998Z,11.40
2018-09-28T11:51:55.655Z,11.40
2018-09-28T11:52:55.663Z,9.30
2018-09-28T11:53:55.642Z,9.20
2018-09-28T11:54:55.632Z,10.70
2018-09-28T11:55:55.610Z,9.50
2018-09-28T11:56:55.600Z,9.90
2018-09-28T11:57:55.592Z,7.90
2018-09-28T11:58:55.580Z,8.10
2018-09-28T11:59:55.568Z,10.80
2018-09-28T12:00:55.556Z,10.70
2018-09-28T12:01:55.545Z,9.10
2018-09-28T12:02:55.536Z,9.70
2018-09-28T12:03:55.527Z,9.20
2018-09-28T12:04:55.512Z,8.70
2018-09-28T12:05:55.509Z,21.00
2018-09-28T12:06:55.660Z,15.00
2018-09-28T12:07:55.483Z,11.00
2018-09-28T12:08:55.478Z,13.70
2018-09-28T12:09:55.464Z,9.10
2018-09-28T12:10:55.450Z,9.70
2018-09-28T12:11:55.442Z,8.30
2018-09-28T12:12:55.430Z,8.60
2018-09-28T12:13:55.420Z,8.00
2018-09-28T12:14:55.407Z,9.20
2018-09-28T12:15:55.725Z,8.20
2018-09-28T12:16:55.395Z,10.70
2018-09-28T12:17:55.384Z,7.60
2018-09-28T12:18:55.379Z,6.40
2018-09-28T12:19:55.357Z,8.30
2018-09-28T12:20:55.349Z,8.90
2018-09-28T12:21:55.342Z,9.60
2018-09-28T12:22:55.333Z,7.20
2018-09-28T12:23:55.318Z,9.70
2018-09-28T12:24:55.316Z,10.20
2018-09-28T12:25:55.307Z,9.70
2018-09-28T12:26:55.299Z,9.00
2018-09-28T12:27:55.283Z,7.40
2018-09-28T12:28:55.266Z,9.00
2018-09-28T12:29:55.259Z,8.60
2018-09-28T12:30:55.248Z,9.20
2018-09-28T12:31:55.243Z,7.70
2018-09-28T12:32:55.229Z,10.90
2018-09-28T12:33:55.219Z,8.30
2018-09-28T12:34:55.210Z,11.20
2018-09-28T12:35:55.214Z,8.70
2018-09-28T12:36:55.188Z,8.90
2018-09-28T12:37:55.182Z,9.20
2018-09-28T12:38:55.210Z,7.60
2018-09-28T12:39:55.236Z,9.60
2018-09-28T12:40:55.151Z,8.40
2018-09-28T12:41:55.142Z,8.40
2018-09-28T12:42:55.131Z,9.10
2018-09-28T12:43:55.123Z,8.00
2018-09-28T12:44:55.269Z,6.70
2018-09-28T12:45:55.104Z,8.20
2018-09-28T12:46:55.097Z,7.00
2018-09-28T12:47:55.085Z,11.20
2018-09-28T12:48:55.075Z,7.30
2018-09-28T12:49:55.068Z,8.30
2018-09-28T12:50:55.061Z,6.70
2018-09-28T12:51:55.045Z,7.50
2018-09-28T12:52:55.037Z,6.90
2018-09-28T12:53:55.038Z,8.90
2018-09-28T12:54:55.017Z,7.20
2018-09-28T12:55:55.014Z,8.10